Time;durP1;ratioP1;P1;durP2;ratioP2;P2;SDS_P1;SDS_P2;PMS_P1;PMS_P2;Temp;Humidity;BMP_temperature;BMP_pressure;BME280_temperature;BME280_humidity;BME280_pressure;Samples;Min_cycle;Max_cycle;Signal;HPM_P1;HPM_P2
2022/12/12 00:02:23;;;;;;;14.20;10.10;;;-1.10;99.90;;;;;;5106145;28;20300;-72
2022/12/12 00:04:50;;;;;;;15.47;10.50;;;-1.10;99.90;;;;;;5103710;28;20294;-72
2022/12/12 00:07:17;;;;;;;15.33;10.23;;;-1.10;99.90;;;;;;5089451;28;20221;-72
2022/12/12 00:09:44;;;;;;;15.17;10.37;;;-1.10;99.90;;;;;;5106777;28;20293;-72
2022/12/12 00:12:11;;;;;;;14.67;10.47;;;-1.20;99.90;;;;;;5106776;28;20767;-72
2022/12/12 00:14:38;;;;;;;17.00;10.37;;;-1.20;99.90;;;;;;5106229;28;20238;-72
2022/12/12 00:17:05;;;;;;;15.33;10.33;;;-1.10;99.90;;;;;;5086692;28;20268;-72
2022/12/12 00:19:34;;;;;;;17.17;10.30;;;-1.10;99.90;;;;;;5087521;28;20290;-72
2022/12/12 00:22:01;;;;;;;15.67;10.40;;;-1.20;99.90;;;;;;5106874;28;20243;-72
2022/12/12 00:24:28;;;;;;;14.83;10.53;;;-1.10;99.90;;;;;;5106640;28;20667;-72
2022/12/12 00:26:55;;;;;;;13.83;10.00;;;-1.10;99.90;;;;;;5106438;28;20197;-72
2022/12/12 00:29:22;;;;;;;15.27;10.37;;;-1.20;99.90;;;;;;5098883;28;20199;-72
2022/12/12 00:31:48;;;;;;;14.07;10.23;;;-1.20;99.90;;;;;;5087133;28;20223;-73
2022/12/12 00:34:15;;;;;;;14.73;9.70;;;-1.20;99.90;;;;;;5085969;28;20306;-72
2022/12/12 00:36:44;;;;;;;15.87;9.70;;;-1.30;99.90;;;;;;5086462;28;20213;-72
2022/12/12 00:39:11;;;;;;;17.00;10.40;;;-1.30;99.90;;;;;;5085970;28;20304;-73
2022/12/12 00:41:38;;;;;;;14.07;9.97;;;-1.30;99.90;;;;;;5091085;28;20336;-72
2022/12/12 00:44:05;;;;;;;14.90;9.73;;;-1.30;99.90;;;;;;5086179;28;20216;-73
2022/12/12 00:46:32;;;;;;;15.17;10.33;;;-1.30;99.90;;;;;;5085675;28;20209;-73
2022/12/12 00:49:00;;;;;;;14.07;9.77;;;-1.30;99.90;;;;;;5085668;28;20553;-72
2022/12/12 00:51:29;;;;;;;16.73;10.27;;;-1.30;99.90;;;;;;5101869;28;20316;-73
2022/12/12 00:53:58;;;;;;;15.70;10.33;;;-1.30;99.90;;;;;;5103117;28;20205;-72
2022/12/12 00:56:26;;;;;;;17.47;10.97;;;-1.30;99.90;;;;;;5085983;28;20275;-72
2022/12/12 00:58:53;;;;;;;14.93;9.83;;;-1.20;99.90;;;;;;5085944;28;20720;-72
2022/12/12 01:01:22;;;;;;;15.50;10.80;;;-1.20;99.90;;;;;;5086319;28;20684;-71
2022/12/12 01:03:49;;;;;;;14.53;10.70;;;-1.20;99.90;;;;;;5101644;28;20630;-71
2022/12/12 01:06:17;;;;;;;16.67;10.60;;;-1.20;99.90;;;;;;5100519;28;20202;-73
2022/12/12 01:08:44;;;;;;;16.70;11.07;;;-1.20;99.90;;;;;;5088268;28;20297;-72
2022/12/12 01:11:14;;;;;;;13.40;9.47;;;-1.20;99.90;;;;;;5103062;28;20329;-73
2022/12/12 01:13:42;;;;;;;16.40;9.83;;;-1.20;99.90;;;;;;5095294;28;20304;-72
2022/12/12 01:16:09;;;;;;;13.87;10.13;;;-1.20;99.90;;;;;;5087062;28;20251;-73
2022/12/12 01:18:39;;;;;;;15.23;10.33;;;-1.20;99.90;;;;;;5099372;28;20308;-72
2022/12/12 01:21:09;;;;;;;19.10;11.23;;;-1.20;99.90;;;;;;5108330;28;20327;-72
2022/12/12 01:23:36;;;;;;;14.47;9.83;;;-1.20;99.90;;;;;;5108022;28;20209;-72
2022/12/12 01:26:04;;;;;;;17.03;9.80;;;-1.20;99.90;;;;;;5107720;28;20228;-72
2022/12/12 01:28:34;;;;;;;15.50;10.57;;;-1.10;99.90;;;;;;5107803;28;20301;-72
2022/12/12 01:31:01;;;;;;;15.90;10.37;;;-1.10;99.90;;;;;;5094919;28;20222;-72
2022/12/12 01:33:28;;;;;;;14.23;9.63;;;-1.00;99.90;;;;;;5087499;28;20689;-73
2022/12/12 01:35:55;;;;;;;17.57;10.47;;;-1.00;99.90;;;;;;5087782;28;20283;-73
2022/12/12 01:38:23;;;;;;;16.70;10.30;;;-0.90;99.90;;;;;;5099852;28;20321;-72
2022/12/12 01:40:50;;;;;;;16.63;10.63;;;-1.00;99.90;;;;;;5106754;28;20229;-74
2022/12/12 01:43:23;;;;;;;14.87;10.53;;;-1.00;99.90;;;;;;5108101;28;20320;-73
2022/12/12 01:48:51;;;;;;;14.20;9.10;;;-1.00;99.90;;;;;;5105052;27;21510;-72
2022/12/12 01:51:22;;;;;;;13.53;9.60;;;-1.10;99.90;;;;;;5105493;28;20251;-74
2022/12/12 01:53:52;;;;;;;14.93;10.60;;;-1.10;99.90;;;;;;5102016;28;20289;-73
2022/12/12 01:56:21;;;;;;;17.03;10.60;;;-1.10;99.90;;;;;;5105567;28;20560;-74
2022/12/12 01:58:51;;;;;;;15.73;10.83;;;-1.10;99.90;;;;;;5105172;28;20297;-73
2022/12/12 02:01:20;;;;;;;14.47;10.67;;;-1.00;99.90;;;;;;5105158;28;20238;-74
2022/12/12 02:03:49;;;;;;;15.67;9.90;;;-1.00;99.90;;;;;;5105330;28;20310;-72
2022/12/12 02:06:19;;;;;;;15.30;10.17;;;-0.90;99.90;;;;;;5099542;28;20337;-72
2022/12/12 02:08:47;;;;;;;15.97;10.77;;;-0.90;99.90;;;;;;5101032;28;20309;-71
2022/12/12 02:11:14;;;;;;;14.67;10.53;;;-0.90;99.90;;;;;;5103795;28;20225;-72
2022/12/12 02:13:41;;;;;;;18.07;10.07;;;-0.90;99.90;;;;;;5104391;28;20305;-72
2022/12/12 02:16:15;;;;;;;17.87;10.20;;;-0.90;99.90;;;;;;5103495;28;20209;-72
2022/12/12 02:18:50;;;;;;;14.63;10.40;;;-1.00;99.90;;;;;;5105040;28;20208;-72
2022/12/12 02:21:25;;;;;;;15.17;10.00;;;-1.00;99.90;;;;;;5104624;28;20315;-72
2022/12/12 02:24:23;;;;;;;16.23;10.87;;;-1.00;99.90;;;;;;5099333;28;21133;-74
2022/12/12 02:27:20;;;;;;;14.07;9.77;;;-1.00;99.90;;;;;;5104815;28;20672;-74
2022/12/12 02:30:11;;;;;;;20.57;10.47;;;-1.00;99.90;;;;;;5104280;28;20739;-75
2022/12/12 02:32:55;;;;;;;16.47;9.93;;;-1.00;99.90;;;;;;5100778;28;20650;-74
2022/12/12 02:35:32;;;;;;;16.07;10.20;;;-1.00;99.90;;;;;;5100038;28;20269;-74
2022/12/12 02:38:06;;;;;;;15.80;11.00;;;-1.00;99.90;;;;;;5084326;28;20288;-75
2022/12/12 02:40:39;;;;;;;19.60;10.70;;;-1.00;99.90;;;;;;5085570;28;20233;-74
2022/12/12 02:43:11;;;;;;;17.37;10.97;;;-1.00;99.90;;;;;;5084080;28;21063;-74
2022/12/12 02:45:41;;;;;;;18.00;10.90;;;-1.00;99.90;;;;;;5085482;28;20657;-72
2022/12/12 02:48:14;;;;;;;18.00;11.67;;;-0.90;99.90;;;;;;5092304;28;20641;-75
2022/12/12 02:50:43;;;;;;;18.30;11.37;;;-0.90;99.90;;;;;;5085675;28;20293;-74
2022/12/12 02:53:10;;;;;;;17.27;11.03;;;-0.80;99.90;;;;;;5087808;28;20205;-75
2022/12/12 02:55:37;;;;;;;19.30;11.97;;;-0.80;99.90;;;;;;5083671;28;20242;-75
2022/12/12 02:58:05;;;;;;;19.83;11.97;;;-0.80;99.90;;;;;;5102170;28;20736;-74
2022/12/12 03:00:48;;;;;;;20.40;11.40;;;-0.80;99.90;;;;;;5089777;28;20248;-74
2022/12/12 03:09:27;;;;;;;19.63;11.83;;;-0.70;99.90;;;;;;5069540;28;20217;-75
2022/12/12 03:12:04;;;;;;;19.80;11.77;;;-0.70;99.90;;;;;;5088984;28;20629;-74
2022/12/12 03:14:45;;;;;;;20.93;11.77;;;-0.70;99.90;;;;;;5090186;28;20256;-74
2022/12/12 03:17:21;;;;;;;20.20;11.53;;;-0.70;99.90;;;;;;5090321;28;20290;-74
2022/12/12 03:19:58;;;;;;;21.47;11.83;;;-0.70;99.90;;;;;;5089912;28;20611;-74
2022/12/12 03:22:33;;;;;;;24.37;11.47;;;-0.70;99.90;;;;;;5090194;28;20288;-74
2022/12/12 03:25:05;;;;;;;20.73;11.93;;;-0.70;99.90;;;;;;5071498;28;20627;-75
2022/12/12 03:27:39;;;;;;;19.27;11.37;;;-0.70;99.90;;;;;;5070107;28;20584;-72
2022/12/12 03:30:08;;;;;;;19.83;11.17;;;-0.70;99.90;;;;;;5077730;28;20294;-72
2022/12/12 03:32:41;;;;;;;20.33;11.33;;;-0.60;99.90;;;;;;5069980;28;20290;-72
2022/12/12 03:35:14;;;;;;;18.23;10.83;;;-0.60;99.90;;;;;;5070229;28;20226;-72
2022/12/12 03:37:45;;;;;;;19.43;12.20;;;-0.60;99.90;;;;;;5069790;28;20221;-72
2022/12/12 03:40:17;;;;;;;18.07;10.70;;;-0.60;99.90;;;;;;5069666;28;20286;-72
2022/12/12 03:42:49;;;;;;;18.17;10.93;;;-0.60;99.90;;;;;;5069949;28;20206;-72
2022/12/12 03:45:24;;;;;;;16.97;10.40;;;-0.50;99.90;;;;;;5069350;28;20290;-72
2022/12/12 03:47:56;;;;;;;16.83;10.27;;;-0.60;99.90;;;;;;5069232;28;20325;-72
2022/12/12 03:50:28;;;;;;;17.80;11.00;;;-0.50;99.90;;;;;;5069484;28;20671;-72
2022/12/12 03:52:59;;;;;;;19.50;11.10;;;-0.50;99.90;;;;;;5078059;28;20720;-72
2022/12/12 03:55:32;;;;;;;16.67;10.00;;;-0.50;99.90;;;;;;5089203;28;20642;-72
2022/12/12 03:58:03;;;;;;;19.70;10.50;;;-0.50;99.90;;;;;;5089458;28;20613;-72
2022/12/12 04:00:36;;;;;;;17.67;10.60;;;-0.50;99.90;;;;;;5077965;28;20767;-73
2022/12/12 04:03:08;;;;;;;14.53;10.10;;;-0.50;99.90;;;;;;5069029;28;20270;-72
2022/12/12 04:06:25;;;;;;;16.07;10.27;;;-0.50;99.90;;;;;;5069301;28;20227;-72
2022/12/12 04:08:30;;;;;;;14.70;9.90;;;-0.50;99.90;;;;;;5068778;28;20227;-72
2022/12/12 04:14:04;;;;;;;14.43;9.00;;;-0.40;99.90;;;;;;5059149;28;20689;-72
2022/12/12 04:16:35;;;;;;;15.90;9.77;;;-0.40;99.90;;;;;;5084968;28;20675;-72
2022/12/12 04:19:09;;;;;;;14.23;9.90;;;-0.50;99.90;;;;;;5088794;28;20198;-72
2022/12/12 04:24:46;;;;;;;13.67;9.10;;;-0.40;99.90;;;;;;5030771;28;20233;-72
2022/12/12 04:27:23;;;;;;;13.57;9.10;;;-0.40;99.90;;;;;;5032711;28;20266;-73
2022/12/12 04:29:55;;;;;;;15.57;9.57;;;-0.40;99.90;;;;;;5048588;28;20294;-73
2022/12/12 04:32:28;;;;;;;13.07;9.57;;;-0.40;99.90;;;;;;5068256;28;20287;-73
2022/12/12 04:34:58;;;;;;;14.37;9.03;;;-0.40;99.90;;;;;;5068841;28;20291;-72
2022/12/12 04:37:30;;;;;;;14.50;8.87;;;-0.40;99.90;;;;;;5088499;28;20997;-72
2022/12/12 04:40:00;;;;;;;12.67;8.60;;;-0.40;99.90;;;;;;5088568;28;20222;-72
2022/12/12 04:42:31;;;;;;;11.13;8.73;;;-0.40;99.90;;;;;;5088497;28;20242;-73
2022/12/12 04:45:03;;;;;;;10.77;8.13;;;-0.40;99.90;;;;;;5087704;28;20199;-73
2022/12/12 04:47:31;;;;;;;10.47;8.03;;;-0.40;99.90;;;;;;5081348;28;20717;-74
2022/12/12 04:50:01;;;;;;;13.47;8.23;;;-0.30;99.90;;;;;;5083477;28;20210;-74
2022/12/12 04:52:32;;;;;;;14.37;8.03;;;-0.30;99.90;;;;;;5088242;28;20289;-74
2022/12/12 04:55:05;;;;;;;9.67;7.07;;;-0.30;99.90;;;;;;5076715;28;20745;-72
2022/12/12 04:57:39;;;;;;;11.50;8.10;;;-0.30;99.90;;;;;;5077462;28;20226;-72
2022/12/12 05:00:07;;;;;;;10.17;7.83;;;-0.30;99.90;;;;;;5088148;28;20194;-72
2022/12/12 05:02:40;;;;;;;10.90;7.77;;;-0.30;99.90;;;;;;5087156;28;20286;-73
2022/12/12 05:05:11;;;;;;;9.43;6.93;;;-0.30;99.90;;;;;;5088045;28;20725;-73
2022/12/12 05:07:42;;;;;;;9.10;7.10;;;-0.30;99.90;;;;;;5069470;28;20310;-73
2022/12/12 05:10:14;;;;;;;8.70;7.33;;;-0.30;99.90;;;;;;5067478;28;20241;-73
2022/12/12 05:12:43;;;;;;;8.83;6.53;;;-0.20;99.90;;;;;;5067691;28;20228;-73
2022/12/12 05:15:10;;;;;;;7.60;6.73;;;-0.20;99.90;;;;;;5074851;28;20297;-73
2022/12/12 05:17:42;;;;;;;7.87;6.20;;;-0.20;99.90;;;;;;5088118;28;20695;-73
2022/12/12 05:20:10;;;;;;;7.67;6.77;;;-0.20;99.90;;;;;;5087991;28;20644;-73
2022/12/12 05:22:37;;;;;;;7.00;6.10;;;-0.20;99.90;;;;;;5087550;28;20207;-71
2022/12/12 05:25:06;;;;;;;7.27;6.10;;;-0.20;99.90;;;;;;5087010;28;20280;-71
2022/12/12 05:27:34;;;;;;;7.13;6.33;;;-0.20;99.90;;;;;;5087664;28;20313;-71
2022/12/12 05:30:00;;;;;;;6.90;6.20;;;-0.20;99.90;;;;;;5070213;28;20199;-71
2022/12/12 05:32:27;;;;;;;6.20;5.60;;;-0.20;99.90;;;;;;5067605;28;20290;-71
2022/12/12 05:34:54;;;;;;;7.97;6.23;;;-0.20;99.90;;;;;;5067515;28;20203;-70
2022/12/12 05:37:21;;;;;;;5.63;5.10;;;-0.20;99.90;;;;;;5071302;28;20629;-71
2022/12/12 05:39:48;;;;;;;6.03;5.43;;;-0.20;99.90;;;;;;5073445;28;20298;-71
2022/12/12 05:42:16;;;;;;;5.90;5.30;;;-0.20;99.90;;;;;;5067357;28;20646;-71
2022/12/12 05:44:43;;;;;;;6.63;5.93;;;-0.20;99.90;;;;;;5070493;28;20293;-71
2022/12/12 05:47:10;;;;;;;6.07;5.47;;;-0.20;99.90;;;;;;5081391;28;20349;-70
2022/12/12 05:49:37;;;;;;;5.70;5.20;;;-0.20;99.90;;;;;;5067894;28;20373;-71
2022/12/12 05:52:04;;;;;;;6.37;5.60;;;-0.20;99.90;;;;;;5086099;28;20289;-71
2022/12/12 05:54:31;;;;;;;6.90;5.57;;;-0.20;99.90;;;;;;5085887;28;20962;-71
2022/12/12 05:56:58;;;;;;;5.50;5.00;;;-0.20;99.90;;;;;;5083562;28;20227;-72
2022/12/12 05:59:26;;;;;;;6.33;5.63;;;-0.20;99.90;;;;;;5067332;28;20294;-73
2022/12/12 06:01:53;;;;;;;5.73;4.80;;;-0.20;99.90;;;;;;5086231;28;20201;-72
2022/12/12 06:04:20;;;;;;;5.30;4.80;;;-0.20;99.90;;;;;;5073008;28;20234;-73
2022/12/12 06:06:47;;;;;;;6.00;5.40;;;-0.20;99.90;;;;;;5066900;28;20734;-73
2022/12/12 06:09:14;;;;;;;5.17;4.73;;;-0.20;99.90;;;;;;5066836;28;20318;-73
2022/12/12 06:11:41;;;;;;;6.03;5.33;;;-0.20;99.90;;;;;;5066837;28;20665;-73
2022/12/12 06:14:08;;;;;;;5.40;4.90;;;-0.20;99.90;;;;;;5066890;28;20227;-72
2022/12/12 06:16:37;;;;;;;5.40;4.80;;;-0.20;99.90;;;;;;5081546;28;20871;-73
2022/12/12 06:19:04;;;;;;;5.47;4.97;;;-0.20;99.90;;;;;;5079422;28;20294;-73
2022/12/12 06:21:31;;;;;;;5.20;4.67;;;-0.20;99.90;;;;;;5082441;28;20325;-74
2022/12/12 06:23:58;;;;;;;5.43;5.03;;;-0.20;99.90;;;;;;5066417;28;20261;-73
2022/12/12 06:26:25;;;;;;;8.37;5.20;;;-0.30;99.90;;;;;;5066655;28;20964;-73
2022/12/12 06:28:51;;;;;;;5.10;4.70;;;-0.30;99.90;;;;;;5067026;28;20314;-73
2022/12/12 06:31:19;;;;;;;6.43;5.30;;;-0.30;99.90;;;;;;5071610;28;20289;-73
2022/12/12 06:33:47;;;;;;;5.93;5.43;;;-0.30;99.90;;;;;;5087615;28;20209;-73
2022/12/12 06:36:21;;;;;;;5.47;5.07;;;-0.30;99.90;;;;;;5090733;28;20203;-74
2022/12/12 06:38:48;;;;;;;5.83;4.80;;;-0.30;99.90;;;;;;5090825;28;20199;-74
2022/12/12 06:41:15;;;;;;;6.00;5.40;;;-0.30;99.90;;;;;;5086778;28;20290;-74
2022/12/12 06:43:43;;;;;;;5.80;5.20;;;-0.30;99.90;;;;;;5075552;28;20206;-74
2022/12/12 06:46:17;;;;;;;5.63;5.13;;;-0.30;99.90;;;;;;5083025;28;20205;-73
2022/12/12 06:48:45;;;;;;;5.40;4.90;;;-0.30;99.90;;;;;;5088235;28;20305;-73
2022/12/12 06:51:16;;;;;;;6.17;5.57;;;-0.30;99.90;;;;;;5090449;28;20237;-73
2022/12/12 06:53:43;;;;;;;5.77;5.23;;;-0.30;99.90;;;;;;5090462;28;20199;-72
2022/12/12 06:56:13;;;;;;;5.97;5.43;;;-0.20;99.90;;;;;;5090227;28;20301;-72
2022/12/12 06:58:40;;;;;;;5.57;5.07;;;-0.30;99.90;;;;;;5090018;28;20211;-72
2022/12/12 07:01:08;;;;;;;4.87;4.47;;;-0.30;99.90;;;;;;5078428;28;20298;-72
2022/12/12 07:03:35;;;;;;;5.53;5.03;;;-0.30;99.90;;;;;;5089687;28;20199;-72
2022/12/12 07:06:01;;;;;;;5.50;5.00;;;-0.30;99.90;;;;;;5090344;28;20199;-72
2022/12/12 07:08:30;;;;;;;5.50;5.00;;;-0.30;99.90;;;;;;5090391;28;20236;-73
2022/12/12 07:11:02;;;;;;;5.40;4.73;;;-0.30;99.90;;;;;;5085964;28;20223;-73
2022/12/12 07:13:29;;;;;;;5.47;4.97;;;-0.30;99.90;;;;;;5070102;28;20258;-73
2022/12/12 07:15:56;;;;;;;5.37;4.90;;;-0.30;99.90;;;;;;5077447;28;20641;-73
2022/12/12 07:18:23;;;;;;;5.60;5.10;;;-0.30;99.90;;;;;;5084330;28;20238;-72
2022/12/12 07:20:50;;;;;;;5.87;5.37;;;-0.30;99.90;;;;;;5090171;28;20275;-73
2022/12/12 07:23:17;;;;;;;16.20;6.00;;;-0.30;99.90;;;;;;5089050;28;20234;-73
2022/12/12 07:25:45;;;;;;;5.67;5.17;;;-0.30;99.90;;;;;;5089876;28;20281;-73
2022/12/12 07:28:13;;;;;;;5.37;4.80;;;-0.30;99.90;;;;;;5089688;28;20230;-72
2022/12/12 07:30:42;;;;;;;5.93;5.30;;;-0.30;99.90;;;;;;5089893;28;20284;-72
2022/12/12 07:33:09;;;;;;;5.07;4.67;;;-0.30;99.90;;;;;;5089653;28;20217;-72
2022/12/12 07:35:36;;;;;;;5.63;5.13;;;-0.30;99.90;;;;;;5078970;28;20231;-72
2022/12/12 07:38:04;;;;;;;5.43;4.97;;;-0.30;99.90;;;;;;5069168;28;20737;-72
2022/12/12 07:40:32;;;;;;;5.47;5.07;;;-0.30;99.90;;;;;;5069299;28;20211;-74
2022/12/12 07:43:01;;;;;;;5.70;5.20;;;-0.30;99.90;;;;;;5069666;28;20212;-73
2022/12/12 07:45:28;;;;;;;5.50;5.10;;;-0.30;99.90;;;;;;5088130;28;20724;-75
2022/12/12 07:47:55;;;;;;;6.43;5.60;;;-0.30;99.90;;;;;;5079465;28;20618;-73
2022/12/12 07:50:22;;;;;;;5.40;4.90;;;-0.30;99.90;;;;;;5069113;28;20330;-73
2022/12/12 07:52:49;;;;;;;7.33;5.73;;;-0.30;99.90;;;;;;5069261;28;20221;-73
2022/12/12 07:55:16;;;;;;;5.60;5.10;;;-0.30;99.90;;;;;;5071698;28;20286;-72
2022/12/12 07:57:43;;;;;;;5.47;4.97;;;-0.30;99.90;;;;;;5089427;28;20286;-72
2022/12/12 08:00:13;;;;;;;5.77;5.20;;;-0.30;99.90;;;;;;5075653;28;20242;-72
2022/12/12 08:02:40;;;;;;;5.70;5.20;;;-0.30;99.90;;;;;;5071216;28;20200;-73
2022/12/12 08:05:08;;;;;;;5.43;4.93;;;-0.20;99.90;;;;;;5078005;28;20201;-73
2022/12/12 08:07:35;;;;;;;8.57;5.00;;;-0.20;99.90;;;;;;5081911;28;20205;-73
2022/12/12 08:10:02;;;;;;;5.90;5.30;;;-0.20;99.90;;;;;;5079431;28;20291;-73
2022/12/12 08:12:29;;;;;;;5.37;4.87;;;-0.20;99.90;;;;;;5086395;28;20318;-73
2022/12/12 08:14:56;;;;;;;5.43;4.93;;;-0.20;99.90;;;;;;5068501;28;20200;-72
2022/12/12 08:17:24;;;;;;;5.57;5.00;;;-0.20;99.90;;;;;;5068633;28;20207;-74
2022/12/12 08:19:52;;;;;;;5.10;4.70;;;-0.20;99.90;;;;;;5068843;28;21236;-71
2022/12/12 08:22:19;;;;;;;5.10;4.60;;;-0.20;99.90;;;;;;5076238;28;20700;-71
2022/12/12 08:24:48;;;;;;;4.93;4.53;;;-0.20;99.90;;;;;;5070101;28;20203;-71
2022/12/12 08:27:15;;;;;;;5.57;4.93;;;-0.20;99.90;;;;;;5081993;28;20250;-71
2022/12/12 08:29:42;;;;;;;4.97;4.57;;;-0.20;99.90;;;;;;5089092;28;20230;-71
2022/12/12 08:32:10;;;;;;;5.67;5.07;;;-0.10;99.90;;;;;;5083439;28;20199;-71
2022/12/12 08:34:38;;;;;;;6.07;5.43;;;-0.10;99.90;;;;;;5075783;28;20680;-71
2022/12/12 08:37:05;;;;;;;6.27;4.37;;;-0.10;99.90;;;;;;5067843;28;20235;-72
2022/12/12 08:39:33;;;;;;;5.13;4.63;;;-0.10;99.90;;;;;;5082884;28;20640;-70
2022/12/12 08:42:00;;;;;;;4.63;4.23;;;-0.10;99.90;;;;;;5088369;28;20231;-71
2022/12/12 08:44:27;;;;;;;4.80;4.50;;;-0.10;99.90;;;;;;5088122;28;20215;-71
2022/12/12 08:46:54;;;;;;;5.27;4.80;;;-0.10;99.90;;;;;;5071335;28;20814;-70
2022/12/12 08:49:20;;;;;;;5.10;4.60;;;-0.10;99.90;;;;;;5076157;28;20238;-70
2022/12/12 08:51:50;;;;;;;4.67;4.23;;;-0.10;99.90;;;;;;5086510;28;20297;-70
2022/12/12 08:54:17;;;;;;;4.67;4.37;;;-0.10;99.90;;;;;;5085383;28;20268;-70
2022/12/12 08:56:44;;;;;;;4.80;4.27;;;0.00;99.90;;;;;;5078532;28;20210;-70
2022/12/12 08:59:12;;;;;;;5.17;4.67;;;0.00;99.90;;;;;;5075503;28;20302;-70
2022/12/12 09:01:40;;;;;;;6.13;5.63;;;0.00;99.90;;;;;;5085916;28;20229;-71
2022/12/12 09:04:07;;;;;;;4.80;4.50;;;0.10;99.90;;;;;;5085775;28;20294;-71
2022/12/12 09:06:34;;;;;;;4.67;4.27;;;0.10;99.90;;;;;;5085421;28;20745;-70
2022/12/12 09:09:02;;;;;;;4.40;4.00;;;0.10;99.90;;;;;;5080032;28;21025;-71
2022/12/12 09:11:29;;;;;;;5.07;4.67;;;0.10;99.90;;;;;;5085646;28;20576;-71
2022/12/12 09:13:56;;;;;;;4.13;3.83;;;0.10;99.90;;;;;;5085456;28;20261;-71
2022/12/12 09:16:25;;;;;;;5.60;4.00;;;0.10;99.90;;;;;;5085355;28;20301;-71
2022/12/12 09:18:52;;;;;;;4.07;3.77;;;0.20;99.90;;;;;;5084755;28;20214;-71
2022/12/12 09:21:20;;;;;;;5.63;4.03;;;0.10;99.90;;;;;;5079999;28;20211;-70
2022/12/12 09:23:47;;;;;;;4.50;4.10;;;0.10;99.90;;;;;;5085307;28;20647;-72
2022/12/12 09:26:16;;;;;;;4.10;3.80;;;0.20;99.90;;;;;;5084987;28;20298;-72
2022/12/12 09:28:43;;;;;;;3.93;3.63;;;0.20;99.90;;;;;;5085446;28;20284;-72
2022/12/12 09:31:12;;;;;;;4.20;3.90;;;0.20;99.90;;;;;;5082701;28;20311;-72
2022/12/12 09:33:41;;;;;;;5.17;4.17;;;0.10;99.90;;;;;;5065182;28;20722;-71
2022/12/12 09:36:10;;;;;;;4.30;4.00;;;0.20;99.90;;;;;;5069588;28;20625;-71
2022/12/12 09:38:38;;;;;;;4.07;3.80;;;0.20;99.90;;;;;;5085951;28;20721;-72
2022/12/12 09:41:13;;;;;;;3.97;3.57;;;0.20;99.90;;;;;;5085302;28;20289;-71
2022/12/12 09:43:48;;;;;;;4.10;3.70;;;0.20;99.90;;;;;;5084671;28;20194;-71
2022/12/12 09:46:25;;;;;;;4.00;3.70;;;0.30;99.90;;;;;;5085103;28;20191;-71
2022/12/12 09:48:52;;;;;;;4.27;3.87;;;0.30;99.90;;;;;;5068153;28;22185;-71
2022/12/12 09:51:25;;;;;;;4.00;3.70;;;0.30;99.90;;;;;;5067217;28;20282;-71
2022/12/12 09:53:52;;;;;;;3.73;3.43;;;0.30;99.90;;;;;;5081785;28;20642;-71
2022/12/12 09:56:23;;;;;;;3.93;3.60;;;0.30;99.90;;;;;;5075998;28;20298;-71
2022/12/12 09:58:58;;;;;;;4.20;3.90;;;0.30;99.90;;;;;;5067425;28;20226;-71
2022/12/12 10:01:31;;;;;;;4.17;3.87;;;0.30;99.90;;;;;;5067506;28;20198;-71
2022/12/12 10:04:11;;;;;;;4.20;3.93;;;0.30;99.90;;;;;;5075023;28;20232;-71
2022/12/12 10:06:43;;;;;;;3.60;3.30;;;0.40;99.90;;;;;;5067142;28;20188;-70
2022/12/12 10:09:31;;;;;;;4.30;4.00;;;0.50;99.90;;;;;;5068241;28;20262;-71
2022/12/12 10:11:59;;;;;;;4.20;3.90;;;0.50;99.90;;;;;;5070887;28;20227;-70
2022/12/12 10:14:34;;;;;;;3.83;3.53;;;0.50;99.90;;;;;;5070803;28;20202;-70
2022/12/12 10:17:03;;;;;;;4.20;3.87;;;0.60;99.90;;;;;;5070606;28;20199;-70
2022/12/12 10:19:35;;;;;;;4.13;3.73;;;0.70;99.90;;;;;;5081620;28;20614;-70
2022/12/12 10:22:06;;;;;;;4.20;3.90;;;0.70;99.90;;;;;;5076332;28;20285;-70
2022/12/12 10:24:39;;;;;;;4.40;4.10;;;0.70;99.90;;;;;;5090623;28;20766;-69
2022/12/12 10:27:11;;;;;;;4.20;3.90;;;0.80;99.90;;;;;;5078258;28;20290;-70
2022/12/12 10:29:40;;;;;;;4.83;4.27;;;0.90;99.90;;;;;;5070670;28;20309;-70
2022/12/12 10:32:16;;;;;;;4.90;4.50;;;1.00;99.90;;;;;;5078614;28;20882;-70
2022/12/12 10:34:57;;;;;;;4.07;3.77;;;1.00;99.90;;;;;;5070568;28;20286;-72
2022/12/12 10:37:38;;;;;;;4.63;4.23;;;1.00;99.90;;;;;;5070556;28;20245;-74
2022/12/12 10:40:17;;;;;;;4.53;4.20;;;0.90;99.90;;;;;;5070204;28;20276;-70
2022/12/12 10:42:49;;;;;;;4.77;4.33;;;0.80;99.90;;;;;;5070117;28;20199;-70
2022/12/12 10:45:32;;;;;;;4.60;4.30;;;0.90;99.90;;;;;;5080589;28;20287;-70
2022/12/12 10:47:59;;;;;;;4.37;4.07;;;1.00;99.90;;;;;;5067539;28;20361;-70
2022/12/12 10:50:32;;;;;;;4.30;4.00;;;1.00;99.90;;;;;;5067887;28;20334;-70
2022/12/12 10:53:00;;;;;;;4.93;4.53;;;1.00;99.90;;;;;;5073300;28;20203;-70
2022/12/12 10:55:38;;;;;;;4.37;4.00;;;1.00;99.90;;;;;;5083267;28;20235;-70
2022/12/12 10:58:06;;;;;;;4.90;4.43;;;1.10;99.90;;;;;;5067915;28;20191;-70
2022/12/12 11:00:37;;;;;;;6.40;4.57;;;1.10;99.90;;;;;;5076121;28;20612;-70
2022/12/12 11:03:29;;;;;;;4.57;4.27;;;1.10;99.90;;;;;;5067713;28;20295;-70
2022/12/12 11:05:57;;;;;;;4.37;3.97;;;1.10;99.90;;;;;;5067494;28;20315;-70
2022/12/12 11:08:30;;;;;;;4.50;4.10;;;1.20;99.90;;;;;;5067707;28;20299;-70
2022/12/12 11:11:03;;;;;;;5.27;4.60;;;1.40;99.90;;;;;;5085108;28;20226;-70
2022/12/12 11:13:31;;;;;;;4.57;4.23;;;1.50;99.90;;;;;;5080948;28;20307;-70
2022/12/12 11:16:01;;;;;;;4.37;4.07;;;1.50;99.90;;;;;;5076170;28;20256;-70
2022/12/12 11:18:30;;;;;;;4.93;4.53;;;1.60;99.90;;;;;;5086651;28;20205;-70
2022/12/12 11:21:06;;;;;;;5.13;4.73;;;1.60;99.90;;;;;;5084622;28;20285;-70
2022/12/12 11:23:35;;;;;;;5.10;4.70;;;1.60;99.90;;;;;;5076010;28;20242;-70
2022/12/12 11:26:05;;;;;;;4.87;4.47;;;1.60;99.90;;;;;;5067466;28;20235;-70
2022/12/12 11:28:37;;;;;;;4.87;4.47;;;1.60;99.90;;;;;;5067941;28;20310;-70
2022/12/12 11:31:09;;;;;;;4.87;4.50;;;1.70;99.90;;;;;;5066646;28;20734;-70
2022/12/12 11:33:42;;;;;;;4.83;4.53;;;1.80;99.90;;;;;;5067556;28;20241;-70
2022/12/12 11:36:14;;;;;;;4.43;4.13;;;1.80;99.90;;;;;;5066924;28;20206;-70
2022/12/12 11:38:47;;;;;;;5.83;4.93;;;1.60;99.90;;;;;;5084614;28;20968;-70
2022/12/12 11:41:14;;;;;;;5.37;4.97;;;1.60;99.90;;;;;;5083427;28;20739;-70
2022/12/12 11:43:54;;;;;;;5.77;5.27;;;1.60;99.90;;;;;;5083647;28;20292;-70
2022/12/12 11:46:27;;;;;;;5.27;4.77;;;1.10;99.90;;;;;;5074264;28;20294;-70
2022/12/12 11:49:01;;;;;;;5.43;5.03;;;0.90;99.90;;;;;;5066252;28;20241;-70
2022/12/12 11:51:37;;;;;;;6.10;5.60;;;0.90;99.90;;;;;;5071847;28;20250;-70
2022/12/12 11:54:10;;;;;;;5.90;5.30;;;0.70;99.90;;;;;;5070854;28;20286;-70
2022/12/12 11:56:56;;;;;;;5.90;5.40;;;0.70;99.90;;;;;;5074932;28;20665;-70
2022/12/12 11:59:41;;;;;;;5.33;4.93;;;0.50;99.90;;;;;;5084898;28;20289;-70
2022/12/12 12:02:29;;;;;;;5.47;4.97;;;0.50;99.90;;;;;;5079794;28;20195;-71
2022/12/12 12:05:10;;;;;;;5.70;5.20;;;0.50;99.90;;;;;;5066524;28;20239;-70
2022/12/12 12:07:57;;;;;;;5.80;5.33;;;0.50;99.90;;;;;;5080164;28;20202;-71
2022/12/12 12:10:38;;;;;;;5.70;5.20;;;0.50;99.90;;;;;;5081722;28;20679;-70
2022/12/12 12:13:32;;;;;;;5.63;5.20;;;0.50;99.90;;;;;;5077871;28;20631;-70
2022/12/12 12:16:10;;;;;;;5.50;5.00;;;0.40;99.90;;;;;;5085157;28;20191;-70
2022/12/12 12:18:51;;;;;;;5.47;5.07;;;0.50;99.90;;;;;;5088528;28;20248;-70
2022/12/12 12:21:36;;;;;;;5.00;4.60;;;0.50;99.90;;;;;;5082808;28;20297;-70
2022/12/12 12:24:27;;;;;;;5.10;4.70;;;0.50;99.90;;;;;;5087804;28;20234;-70
2022/12/12 12:27:01;;;;;;;5.40;4.97;;;0.40;99.90;;;;;;5068374;28;20731;-70
2022/12/12 12:29:50;;;;;;;5.27;4.87;;;0.40;99.90;;;;;;5068460;28;20289;-70
2022/12/12 12:32:29;;;;;;;5.57;5.07;;;0.50;99.90;;;;;;5066910;28;20283;-70
2022/12/12 12:35:10;;;;;;;6.07;5.57;;;0.60;99.90;;;;;;5085455;28;20241;-71
2022/12/12 12:37:49;;;;;;;5.57;5.07;;;0.60;99.90;;;;;;5088545;28;20628;-70
2022/12/12 12:40:37;;;;;;;5.40;5.00;;;0.70;99.90;;;;;;5087725;28;20286;-70
2022/12/12 12:43:22;;;;;;;5.83;5.33;;;0.70;99.90;;;;;;5088067;28;20281;-70
2022/12/12 12:45:55;;;;;;;5.30;4.90;;;0.70;99.90;;;;;;5080890;28;20281;-70
2022/12/12 12:48:27;;;;;;;4.77;4.43;;;0.70;99.90;;;;;;5069892;28;20235;-70
2022/12/12 12:51:03;;;;;;;5.80;5.30;;;0.70;99.90;;;;;;5079232;28;20258;-70
2022/12/12 12:53:35;;;;;;;5.13;4.73;;;0.70;99.90;;;;;;5075032;28;20215;-71
2022/12/12 12:56:11;;;;;;;5.03;4.63;;;0.60;99.90;;;;;;5087528;28;20191;-71
2022/12/12 12:58:44;;;;;;;5.40;4.90;;;0.50;99.90;;;;;;5088508;28;20616;-70
2022/12/12 13:01:15;;;;;;;5.83;5.33;;;0.50;99.90;;;;;;5087267;28;20270;-70
2022/12/12 13:03:48;;;;;;;5.10;4.70;;;0.60;99.90;;;;;;5088094;28;20195;-70
2022/12/12 13:06:22;;;;;;;5.20;4.80;;;0.50;99.90;;;;;;5088083;28;20194;-70
2022/12/12 13:08:57;;;;;;;5.50;5.10;;;0.40;99.90;;;;;;5071324;28;20665;-71
2022/12/12 13:11:30;;;;;;;5.13;4.73;;;0.30;99.90;;;;;;5067353;28;20772;-71
2022/12/12 13:14:04;;;;;;;5.97;5.47;;;0.40;99.90;;;;;;5082733;28;20632;-70
2022/12/12 13:16:33;;;;;;;5.23;4.83;;;0.40;99.90;;;;;;5087633;28;20720;-70
2022/12/12 13:19:04;;;;;;;5.40;4.90;;;0.40;99.90;;;;;;5087555;28;20252;-70